sensor_id;sensor_type;location;lat;lon;timestamp;P1;durP1;ratioP1;P2;durP2;ratioP2
4011;SDS011;2020;48.682;9.024;2023-02-23T00:01:32;24.17;;;15.80;;
4011;SDS011;2020;48.682;9.024;2023-02-23T00:03:57;22.43;;;14.80;;
4011;SDS011;2020;48.682;9.024;2023-02-23T00:06:24;19.80;;;14.10;;
4011;SDS011;2020;48.682;9.024;2023-02-23T00:08:51;25.10;;;16.40;;
4011;SDS011;2020;48.682;9.024;2023-02-23T00:11:17;20.60;;;15.40;;
4011;SDS011;2020;48.682;9.024;2023-02-23T00:13:44;20.83;;;16.30;;
4011;SDS011;2020;48.682;9.024;2023-02-23T00:16:14;19.93;;;14.73;;
4011;SDS011;2020;48.682;9.024;2023-02-23T00:18:45;21.20;;;15.43;;
4011;SDS011;2020;48.682;9.024;2023-02-23T00:21:15;21.50;;;16.47;;
4011;SDS011;2020;48.682;9.024;2023-02-23T00:23:57;22.33;;;16.17;;
4011;SDS011;2020;48.682;9.024;2023-02-23T00:26:26;19.07;;;15.97;;
4011;SDS011;2020;48.682;9.024;2023-02-23T00:28:55;19.30;;;14.80;;
4011;SDS011;2020;48.682;9.024;2023-02-23T00:31:22;18.47;;;14.03;;
4011;SDS011;2020;48.682;9.024;2023-02-23T00:33:53;21.60;;;14.73;;
4011;SDS011;2020;48.682;9.024;2023-02-23T00:36:23;15.40;;;13.07;;
4011;SDS011;2020;48.682;9.024;2023-02-23T00:38:54;22.30;;;13.50;;
4011;SDS011;2020;48.682;9.024;2023-02-23T00:41:21;16.93;;;12.77;;
4011;SDS011;2020;48.682;9.024;2023-02-23T00:43:52;16.43;;;11.63;;
4011;SDS011;2020;48.682;9.024;2023-02-23T00:46:19;15.67;;;12.00;;
4011;SDS011;2020;48.682;9.024;2023-02-23T00:48:46;17.40;;;13.00;;
4011;SDS011;2020;48.682;9.024;2023-02-23T00:51:15;21.57;;;12.90;;
4011;SDS011;2020;48.682;9.024;2023-02-23T00:53:42;12.30;;;11.00;;
4011;SDS011;2020;48.682;9.024;2023-02-23T00:56:09;15.80;;;12.40;;
4011;SDS011;2020;48.682;9.024;2023-02-23T00:58:36;14.70;;;10.93;;
4011;SDS011;2020;48.682;9.024;2023-02-23T01:01:03;13.77;;;10.70;;
4011;SDS011;2020;48.682;9.024;2023-02-23T01:03:30;12.97;;;11.37;;
4011;SDS011;2020;48.682;9.024;2023-02-23T01:05:59;13.23;;;10.87;;
4011;SDS011;2020;48.682;9.024;2023-02-23T01:08:30;15.97;;;11.40;;
4011;SDS011;2020;48.682;9.024;2023-02-23T01:10:56;15.80;;;11.83;;
4011;SDS011;2020;48.682;9.024;2023-02-23T01:13:22;11.93;;;10.67;;
4011;SDS011;2020;48.682;9.024;2023-02-23T01:15:48;12.27;;;10.47;;
4011;SDS011;2020;48.682;9.024;2023-02-23T01:18:16;12.73;;;11.07;;
4011;SDS011;2020;48.682;9.024;2023-02-23T01:20:43;16.17;;;9.07;;
4011;SDS011;2020;48.682;9.024;2023-02-23T01:23:10;12.43;;;11.13;;
4011;SDS011;2020;48.682;9.024;2023-02-23T01:25:37;11.97;;;10.67;;
4011;SDS011;2020;48.682;9.024;2023-02-23T01:28:03;13.43;;;10.33;;
4011;SDS011;2020;48.682;9.024;2023-02-23T01:30:28;9.83;;;8.53;;
4011;SDS011;2020;48.682;9.024;2023-02-23T01:32:54;15.20;;;10.23;;
4011;SDS011;2020;48.682;9.024;2023-02-23T01:35:19;17.53;;;10.30;;
4011;SDS011;2020;48.682;9.024;2023-02-23T01:37:44;11.57;;;10.37;;
4011;SDS011;2020;48.682;9.024;2023-02-23T01:40:14;14.23;;;9.80;;
4011;SDS011;2020;48.682;9.024;2023-02-23T01:42:55;14.63;;;10.17;;
4011;SDS011;2020;48.682;9.024;2023-02-23T01:47:57;9.83;;;8.83;;
4011;SDS011;2020;48.682;9.024;2023-02-23T01:50:25;16.73;;;10.10;;
4011;SDS011;2020;48.682;9.024;2023-02-23T01:52:54;9.93;;;9.00;;
4011;SDS011;2020;48.682;9.024;2023-02-23T01:55:20;11.17;;;8.73;;
4011;SDS011;2020;48.682;9.024;2023-02-23T01:57:49;15.40;;;9.70;;
4011;SDS011;2020;48.682;9.024;2023-02-23T02:00:20;12.93;;;9.60;;
4011;SDS011;2020;48.682;9.024;2023-02-23T02:02:49;9.23;;;8.40;;
4011;SDS011;2020;48.682;9.024;2023-02-23T02:05:16;10.67;;;8.83;;
4011;SDS011;2020;48.682;9.024;2023-02-23T02:07:44;10.80;;;8.90;;
4011;SDS011;2020;48.682;9.024;2023-02-23T02:10:13;12.67;;;8.43;;
4011;SDS011;2020;48.682;9.024;2023-02-23T02:12:39;10.70;;;8.63;;
4011;SDS011;2020;48.682;9.024;2023-02-23T02:15:06;10.63;;;9.47;;
4011;SDS011;2020;48.682;9.024;2023-02-23T02:20:55;11.43;;;8.53;;
4011;SDS011;2020;48.682;9.024;2023-02-23T02:37:26;9.17;;;7.70;;
4011;SDS011;2020;48.682;9.024;2023-02-23T02:43:04;10.97;;;9.03;;
4011;SDS011;2020;48.682;9.024;2023-02-23T02:45:50;8.33;;;7.47;;
4011;SDS011;2020;48.682;9.024;2023-02-23T02:51:23;9.27;;;8.20;;
4011;SDS011;2020;48.682;9.024;2023-02-23T02:54:21;8.77;;;7.87;;
4011;SDS011;2020;48.682;9.024;2023-02-23T02:56:51;10.60;;;7.20;;
4011;SDS011;2020;48.682;9.024;2023-02-23T02:59:21;10.30;;;7.87;;
4011;SDS011;2020;48.682;9.024;2023-02-23T03:02:06;8.77;;;7.50;;
4011;SDS011;2020;48.682;9.024;2023-02-23T03:04:57;7.53;;;6.73;;
4011;SDS011;2020;48.682;9.024;2023-02-23T03:07:44;10.43;;;8.80;;
4011;SDS011;2020;48.682;9.024;2023-02-23T03:10:41;13.63;;;8.13;;
4011;SDS011;2020;48.682;9.024;2023-02-23T03:19:37;8.53;;;7.67;;
4011;SDS011;2020;48.682;9.024;2023-02-23T03:22:37;8.13;;;7.33;;
4011;SDS011;2020;48.682;9.024;2023-02-23T03:25:31;6.90;;;6.20;;
4011;SDS011;2020;48.682;9.024;2023-02-23T03:28:26;7.80;;;7.10;;
4011;SDS011;2020;48.682;9.024;2023-02-23T03:31:28;9.00;;;7.10;;
4011;SDS011;2020;48.682;9.024;2023-02-23T03:34:22;10.07;;;7.90;;
4011;SDS011;2020;48.682;9.024;2023-02-23T03:37:16;10.27;;;6.90;;
4011;SDS011;2020;48.682;9.024;2023-02-23T03:40:06;7.50;;;6.80;;
4011;SDS011;2020;48.682;9.024;2023-02-23T03:42:59;10.47;;;7.57;;
4011;SDS011;2020;48.682;9.024;2023-02-23T03:45:47;7.53;;;6.83;;
4011;SDS011;2020;48.682;9.024;2023-02-23T03:48:32;8.40;;;7.60;;
4011;SDS011;2020;48.682;9.024;2023-02-23T03:51:18;9.93;;;7.67;;
4011;SDS011;2020;48.682;9.024;2023-02-23T03:56:54;15.97;;;7.53;;
4011;SDS011;2020;48.682;9.024;2023-02-23T03:59:49;14.83;;;7.93;;
4011;SDS011;2020;48.682;9.024;2023-02-23T04:02:37;7.47;;;6.63;;
4011;SDS011;2020;48.682;9.024;2023-02-23T04:05:24;7.23;;;6.53;;
4011;SDS011;2020;48.682;9.024;2023-02-23T04:08:11;7.53;;;6.50;;
4011;SDS011;2020;48.682;9.024;2023-02-23T04:11:03;9.60;;;6.80;;
4011;SDS011;2020;48.682;9.024;2023-02-23T04:13:57;6.13;;;5.60;;
4011;SDS011;2020;48.682;9.024;2023-02-23T04:16:27;7.20;;;6.50;;
4011;SDS011;2020;48.682;9.024;2023-02-23T04:18:54;7.87;;;6.97;;
4011;SDS011;2020;48.682;9.024;2023-02-23T04:21:19;6.47;;;5.97;;
4011;SDS011;2020;48.682;9.024;2023-02-23T04:23:45;7.83;;;7.00;;
4011;SDS011;2020;48.682;9.024;2023-02-23T04:26:11;6.63;;;6.00;;
4011;SDS011;2020;48.682;9.024;2023-02-23T04:28:36;7.40;;;6.60;;
4011;SDS011;2020;48.682;9.024;2023-02-23T04:31:01;6.80;;;6.20;;
4011;SDS011;2020;48.682;9.024;2023-02-23T04:33:26;9.20;;;6.53;;
4011;SDS011;2020;48.682;9.024;2023-02-23T04:35:52;5.63;;;5.30;;
4011;SDS011;2020;48.682;9.024;2023-02-23T04:38:18;6.77;;;6.17;;
4011;SDS011;2020;48.682;9.024;2023-02-23T04:40:44;6.37;;;5.77;;
4011;SDS011;2020;48.682;9.024;2023-02-23T04:43:12;9.47;;;6.77;;
4011;SDS011;2020;48.682;9.024;2023-02-23T04:45:38;7.10;;;6.40;;
4011;SDS011;2020;48.682;9.024;2023-02-23T04:48:04;7.23;;;6.63;;
4011;SDS011;2020;48.682;9.024;2023-02-23T04:50:29;11.60;;;7.70;;
4011;SDS011;2020;48.682;9.024;2023-02-23T04:52:54;8.00;;;6.40;;
4011;SDS011;2020;48.682;9.024;2023-02-23T04:55:21;7.00;;;6.30;;
4011;SDS011;2020;48.682;9.024;2023-02-23T04:57:48;9.40;;;8.50;;
4011;SDS011;2020;48.682;9.024;2023-02-23T05:00:14;7.30;;;6.60;;
4011;SDS011;2020;48.682;9.024;2023-02-23T05:02:40;8.30;;;7.50;;
4011;SDS011;2020;48.682;9.024;2023-02-23T05:05:06;8.53;;;7.73;;
4011;SDS011;2020;48.682;9.024;2023-02-23T05:07:33;9.53;;;8.47;;
4011;SDS011;2020;48.682;9.024;2023-02-23T05:09:58;11.17;;;7.13;;
4011;SDS011;2020;48.682;9.024;2023-02-23T05:12:24;9.40;;;7.90;;
4011;SDS011;2020;48.682;9.024;2023-02-23T05:14:49;9.27;;;8.30;;
4011;SDS011;2020;48.682;9.024;2023-02-23T05:17:15;8.70;;;7.90;;
4011;SDS011;2020;48.682;9.024;2023-02-23T05:19:40;9.10;;;8.30;;
4011;SDS011;2020;48.682;9.024;2023-02-23T05:22:05;13.90;;;9.57;;
4011;SDS011;2020;48.682;9.024;2023-02-23T05:24:31;9.90;;;8.90;;
4011;SDS011;2020;48.682;9.024;2023-02-23T05:26:56;8.67;;;7.77;;
4011;SDS011;2020;48.682;9.024;2023-02-23T05:29:22;8.37;;;7.67;;
4011;SDS011;2020;48.682;9.024;2023-02-23T05:31:48;8.50;;;7.80;;
4011;SDS011;2020;48.682;9.024;2023-02-23T05:34:13;10.80;;;8.70;;
4011;SDS011;2020;48.682;9.024;2023-02-23T05:36:40;10.87;;;8.60;;
4011;SDS011;2020;48.682;9.024;2023-02-23T05:39:06;8.87;;;7.73;;
4011;SDS011;2020;48.682;9.024;2023-02-23T05:41:31;9.57;;;8.67;;
4011;SDS011;2020;48.682;9.024;2023-02-23T05:43:56;14.10;;;8.90;;
4011;SDS011;2020;48.682;9.024;2023-02-23T05:46:23;10.37;;;8.80;;
4011;SDS011;2020;48.682;9.024;2023-02-23T05:48:50;10.57;;;9.00;;
4011;SDS011;2020;48.682;9.024;2023-02-23T05:51:19;10.23;;;9.30;;
4011;SDS011;2020;48.682;9.024;2023-02-23T05:53:44;9.00;;;8.20;;
4011;SDS011;2020;48.682;9.024;2023-02-23T05:56:11;9.27;;;8.37;;
4011;SDS011;2020;48.682;9.024;2023-02-23T05:58:38;15.93;;;8.60;;
4011;SDS011;2020;48.682;9.024;2023-02-23T06:01:03;10.90;;;8.00;;
4011;SDS011;2020;48.682;9.024;2023-02-23T06:03:28;11.90;;;9.10;;
4011;SDS011;2020;48.682;9.024;2023-02-23T06:05:56;11.43;;;9.73;;
4011;SDS011;2020;48.682;9.024;2023-02-23T06:08:22;9.20;;;7.60;;
4011;SDS011;2020;48.682;9.024;2023-02-23T06:10:49;10.13;;;8.87;;
4011;SDS011;2020;48.682;9.024;2023-02-23T06:13:15;8.90;;;7.90;;
4011;SDS011;2020;48.682;9.024;2023-02-23T06:15:41;11.97;;;10.80;;
4011;SDS011;2020;48.682;9.024;2023-02-23T06:18:07;10.10;;;9.07;;
4011;SDS011;2020;48.682;9.024;2023-02-23T06:20:33;9.33;;;8.43;;
4011;SDS011;2020;48.682;9.024;2023-02-23T06:22:58;10.27;;;8.63;;
4011;SDS011;2020;48.682;9.024;2023-02-23T06:25:24;11.57;;;8.20;;
4011;SDS011;2020;48.682;9.024;2023-02-23T06:27:49;11.23;;;9.47;;
4011;SDS011;2020;48.682;9.024;2023-02-23T06:30:14;9.87;;;8.87;;
4011;SDS011;2020;48.682;9.024;2023-02-23T06:32:40;10.43;;;9.53;;
4011;SDS011;2020;48.682;9.024;2023-02-23T06:35:06;10.40;;;8.77;;
4011;SDS011;2020;48.682;9.024;2023-02-23T06:37:32;10.97;;;8.83;;
4011;SDS011;2020;48.682;9.024;2023-02-23T06:39:58;12.10;;;9.53;;
4011;SDS011;2020;48.682;9.024;2023-02-23T06:42:24;9.27;;;8.30;;
4011;SDS011;2020;48.682;9.024;2023-02-23T06:44:49;9.60;;;8.70;;
4011;SDS011;2020;48.682;9.024;2023-02-23T06:47:15;11.77;;;8.60;;
4011;SDS011;2020;48.682;9.024;2023-02-23T06:49:40;8.80;;;8.00;;
4011;SDS011;2020;48.682;9.024;2023-02-23T06:52:06;10.50;;;9.17;;
4011;SDS011;2020;48.682;9.024;2023-02-23T06:54:32;11.63;;;9.73;;
4011;SDS011;2020;48.682;9.024;2023-02-23T06:57:02;12.67;;;9.37;;
4011;SDS011;2020;48.682;9.024;2023-02-23T06:59:27;14.17;;;10.30;;
4011;SDS011;2020;48.682;9.024;2023-02-23T07:01:54;8.97;;;8.13;;
4011;SDS011;2020;48.682;9.024;2023-02-23T07:04:19;12.60;;;9.03;;
4011;SDS011;2020;48.682;9.024;2023-02-23T07:06:45;11.90;;;9.40;;
4011;SDS011;2020;48.682;9.024;2023-02-23T07:09:10;9.83;;;8.50;;
4011;SDS011;2020;48.682;9.024;2023-02-23T07:11:35;9.97;;;8.63;;
4011;SDS011;2020;48.682;9.024;2023-02-23T07:14:00;10.60;;;8.17;;
4011;SDS011;2020;48.682;9.024;2023-02-23T07:16:29;10.07;;;7.87;;
4011;SDS011;2020;48.682;9.024;2023-02-23T07:18:54;11.10;;;8.40;;
4011;SDS011;2020;48.682;9.024;2023-02-23T07:21:20;7.50;;;6.90;;
4011;SDS011;2020;48.682;9.024;2023-02-23T07:23:45;9.70;;;8.73;;
4011;SDS011;2020;48.682;9.024;2023-02-23T07:26:15;8.57;;;7.77;;
4011;SDS011;2020;48.682;9.024;2023-02-23T07:28:41;9.80;;;7.93;;
4011;SDS011;2020;48.682;9.024;2023-02-23T07:31:07;8.40;;;7.50;;
4011;SDS011;2020;48.682;9.024;2023-02-23T07:33:32;8.97;;;8.20;;
4011;SDS011;2020;48.682;9.024;2023-02-23T07:35:57;9.13;;;8.10;;
4011;SDS011;2020;48.682;9.024;2023-02-23T07:38:22;9.03;;;7.27;;
4011;SDS011;2020;48.682;9.024;2023-02-23T07:40:48;9.77;;;8.20;;
4011;SDS011;2020;48.682;9.024;2023-02-23T07:43:14;9.93;;;8.33;;
4011;SDS011;2020;48.682;9.024;2023-02-23T07:45:39;13.70;;;8.10;;
4011;SDS011;2020;48.682;9.024;2023-02-23T07:48:05;11.03;;;8.70;;
4011;SDS011;2020;48.682;9.024;2023-02-23T07:50:31;10.90;;;7.80;;
4011;SDS011;2020;48.682;9.024;2023-02-23T07:52:56;8.10;;;7.40;;
4011;SDS011;2020;48.682;9.024;2023-02-23T07:55:21;10.00;;;8.00;;
4011;SDS011;2020;48.682;9.024;2023-02-23T07:57:46;10.53;;;7.63;;
4011;SDS011;2020;48.682;9.024;2023-02-23T08:00:12;10.63;;;8.00;;
4011;SDS011;2020;48.682;9.024;2023-02-23T08:02:38;10.67;;;7.80;;
4011;SDS011;2020;48.682;9.024;2023-02-23T08:05:04;9.83;;;8.30;;
4011;SDS011;2020;48.682;9.024;2023-02-23T08:07:33;8.97;;;8.07;;
4011;SDS011;2020;48.682;9.024;2023-02-23T08:09:58;7.07;;;6.37;;
4011;SDS011;2020;48.682;9.024;2023-02-23T08:12:24;6.83;;;6.30;;
4011;SDS011;2020;48.682;9.024;2023-02-23T08:14:49;12.83;;;7.20;;
4011;SDS011;2020;48.682;9.024;2023-02-23T08:17:14;9.73;;;6.60;;
4011;SDS011;2020;48.682;9.024;2023-02-23T08:19:40;8.63;;;7.40;;
4011;SDS011;2020;48.682;9.024;2023-02-23T08:22:05;10.73;;;7.47;;
4011;SDS011;2020;48.682;9.024;2023-02-23T08:24:31;7.90;;;7.20;;
4011;SDS011;2020;48.682;9.024;2023-02-23T08:27:01;7.67;;;7.07;;
4011;SDS011;2020;48.682;9.024;2023-02-23T08:29:27;9.77;;;7.33;;
4011;SDS011;2020;48.682;9.024;2023-02-23T08:31:52;9.10;;;7.33;;
4011;SDS011;2020;48.682;9.024;2023-02-23T08:34:18;7.87;;;6.50;;
4011;SDS011;2020;48.682;9.024;2023-02-23T08:36:44;10.97;;;6.77;;
4011;SDS011;2020;48.682;9.024;2023-02-23T08:39:10;7.37;;;5.40;;
4011;SDS011;2020;48.682;9.024;2023-02-23T08:41:37;11.97;;;5.90;;
4011;SDS011;2020;48.682;9.024;2023-02-23T08:44:02;7.80;;;6.50;;
4011;SDS011;2020;48.682;9.024;2023-02-23T08:46:28;7.30;;;5.60;;
4011;SDS011;2020;48.682;9.024;2023-02-23T08:48:54;8.43;;;5.63;;
4011;SDS011;2020;48.682;9.024;2023-02-23T08:51:19;6.80;;;5.53;;
4011;SDS011;2020;48.682;9.024;2023-02-23T08:53:45;7.03;;;5.53;;
4011;SDS011;2020;48.682;9.024;2023-02-23T08:56:10;9.33;;;4.73;;
4011;SDS011;2020;48.682;9.024;2023-02-23T08:58:37;6.10;;;5.50;;
4011;SDS011;2020;48.682;9.024;2023-02-23T09:01:02;6.10;;;5.47;;
4011;SDS011;2020;48.682;9.024;2023-02-23T09:03:28;6.57;;;4.87;;
4011;SDS011;2020;48.682;9.024;2023-02-23T09:05:55;6.67;;;6.10;;
4011;SDS011;2020;48.682;9.024;2023-02-23T09:08:22;8.50;;;5.90;;
4011;SDS011;2020;48.682;9.024;2023-02-23T09:10:47;6.00;;;5.40;;
4011;SDS011;2020;48.682;9.024;2023-02-23T09:13:12;6.30;;;4.57;;
4011;SDS011;2020;48.682;9.024;2023-02-23T09:15:38;5.83;;;5.23;;
4011;SDS011;2020;48.682;9.024;2023-02-23T09:18:10;5.50;;;5.00;;
4011;SDS011;2020;48.682;9.024;2023-02-23T09:20:40;6.70;;;5.47;;
4011;SDS011;2020;48.682;9.024;2023-02-23T09:23:07;5.50;;;5.00;;
4011;SDS011;2020;48.682;9.024;2023-02-23T09:25:32;8.40;;;5.60;;
4011;SDS011;2020;48.682;9.024;2023-02-23T09:27:57;5.13;;;4.73;;
4011;SDS011;2020;48.682;9.024;2023-02-23T09:30:24;10.00;;;5.50;;
4011;SDS011;2020;48.682;9.024;2023-02-23T09:32:50;5.77;;;4.70;;
4011;SDS011;2020;48.682;9.024;2023-02-23T09:35:15;9.83;;;6.23;;
4011;SDS011;2020;48.682;9.024;2023-02-23T09:37:46;7.70;;;4.93;;
4011;SDS011;2020;48.682;9.024;2023-02-23T09:40:14;5.73;;;5.10;;
4011;SDS011;2020;48.682;9.024;2023-02-23T09:42:52;6.57;;;4.70;;
4011;SDS011;2020;48.682;9.024;2023-02-23T09:48:08;6.23;;;5.67;;
4011;SDS011;2020;48.682;9.024;2023-02-23T09:50:38;4.50;;;4.10;;
4011;SDS011;2020;48.682;9.024;2023-02-23T09:55:52;5.47;;;3.93;;
4011;SDS011;2020;48.682;9.024;2023-02-23T09:58:24;5.17;;;4.53;;
4011;SDS011;2020;48.682;9.024;2023-02-23T10:01:16;3.93;;;3.53;;
4011;SDS011;2020;48.682;9.024;2023-02-23T10:04:22;2.77;;;2.63;;
4011;SDS011;2020;48.682;9.024;2023-02-23T10:17:54;4.23;;;2.63;;
4011;SDS011;2020;48.682;9.024;2023-02-23T10:23:37;3.03;;;2.93;;
4011;SDS011;2020;48.682;9.024;2023-02-23T10:26:06;5.60;;;2.60;;
4011;SDS011;2020;48.682;9.024;2023-02-23T10:28:39;2.57;;;2.37;;
4011;SDS011;2020;48.682;9.024;2023-02-23T10:31:12;4.87;;;3.87;;
4011;SDS011;2020;48.682;9.024;2023-02-23T10:33:56;2.63;;;1.90;;
4011;SDS011;2020;48.682;9.024;2023-02-23T10:36:30;5.40;;;3.10;;
4011;SDS011;2020;48.682;9.024;2023-02-23T10:38:59;1.67;;;1.60;;
4011;SDS011;2020;48.682;9.024;2023-02-23T10:41:24;2.00;;;1.90;;
4011;SDS011;2020;48.682;9.024;2023-02-23T10:43:50;2.07;;;1.93;;
4011;SDS011;2020;48.682;9.024;2023-02-23T10:46:20;2.63;;;1.60;;
4011;SDS011;2020;48.682;9.024;2023-02-23T10:48:48;2.47;;;2.10;;
4011;SDS011;2020;48.682;9.024;2023-02-23T10:51:17;2.13;;;2.03;;
4011;SDS011;2020;48.682;9.024;2023-02-23T10:53:46;5.60;;;2.03;;
4011;SDS011;2020;48.682;9.024;2023-02-23T10:58:43;2.53;;;2.33;;
4011;SDS011;2020;48.682;9.024;2023-02-23T11:01:11;2.03;;;1.93;;
4011;SDS011;2020;48.682;9.024;2023-02-23T11:03:43;2.17;;;2.07;;
4011;SDS011;2020;48.682;9.024;2023-02-23T11:06:33;4.50;;;3.33;;
4011;SDS011;2020;48.682;9.024;2023-02-23T11:09:15;5.23;;;2.40;;
4011;SDS011;2020;48.682;9.024;2023-02-23T11:11:54;2.77;;;2.57;;
4011;SDS011;2020;48.682;9.024;2023-02-23T11:14:22;3.30;;;3.10;;
4011;SDS011;2020;48.682;9.024;2023-02-23T11:16:49;3.40;;;2.50;;
4011;SDS011;2020;48.682;9.024;2023-02-23T11:19:20;10.23;;;2.80;;
4011;SDS011;2020;48.682;9.024;2023-02-23T11:21:54;5.63;;;2.90;;
4011;SDS011;2020;48.682;9.024;2023-02-23T11:24:35;6.53;;;3.70;;
4011;SDS011;2020;48.682;9.024;2023-02-23T11:27:05;4.37;;;3.17;;
4011;SDS011;2020;48.682;9.024;2023-02-23T11:29:41;6.93;;;4.30;;
4011;SDS011;2020;48.682;9.024;2023-02-23T11:34:39;6.00;;;3.57;;
4011;SDS011;2020;48.682;9.024;2023-02-23T11:40:29;6.27;;;3.07;;
4011;SDS011;2020;48.682;9.024;2023-02-23T11:45:31;6.90;;;3.40;;
4011;SDS011;2020;48.682;9.024;2023-02-23T11:54:35;2.87;;;2.63;;
4011;SDS011;2020;48.682;9.024;2023-02-23T11:57:02;6.10;;;2.97;;
4011;SDS011;2020;48.682;9.024;2023-02-23T11:59:29;2.73;;;2.40;;
4011;SDS011;2020;48.682;9.024;2023-02-23T12:02:20;2.87;;;2.47;;
4011;SDS011;2020;48.682;9.024;2023-02-23T12:04:49;6.33;;;2.30;;
4011;SDS011;2020;48.682;9.024;2023-02-23T12:07:38;3.80;;;2.00;;
4011;SDS011;2020;48.682;9.024;2023-02-23T12:12:59;3.10;;;2.30;;
4011;SDS011;2020;48.682;9.024;2023-02-23T12:15:39;2.70;;;2.23;;
4011;SDS011;2020;48.682;9.024;2023-02-23T12:20:46;4.60;;;2.90;;
4011;SDS011;2020;48.682;9.024;2023-02-23T12:23:19;4.50;;;3.23;;
4011;SDS011;2020;48.682;9.024;2023-02-23T12:26:02;2.73;;;2.53;;
4011;SDS011;2020;48.682;9.024;2023-02-23T12:28:42;4.00;;;3.40;;
4011;SDS011;2020;48.682;9.024;2023-02-23T12:34:16;3.53;;;3.43;;
4011;SDS011;2020;48.682;9.024;2023-02-23T12:36:49;4.83;;;4.23;;
4011;SDS011;2020;48.682;9.024;2023-02-23T12:39:25;9.80;;;3.50;;
4011;SDS011;2020;48.682;9.024;2023-02-23T12:42:16;6.90;;;4.50;;
4011;SDS011;2020;48.682;9.024;2023-02-23T12:45:05;4.13;;;3.83;;
4011;SDS011;2020;48.682;9.024;2023-02-23T12:47:43;4.27;;;3.77;;
4011;SDS011;2020;48.682;9.024;2023-02-23T12:56:18;6.50;;;3.60;;
4011;SDS011;2020;48.682;9.024;2023-02-23T12:59:01;4.23;;;3.93;;
4011;SDS011;2020;48.682;9.024;2023-02-23T13:01:53;3.30;;;3.00;;
4011;SDS011;2020;48.682;9.024;2023-02-23T13:04:28;6.30;;;4.50;;
4011;SDS011;2020;48.682;9.024;2023-02-23T13:07:20;5.07;;;3.63;;
4011;SDS011;2020;48.682;9.024;2023-02-23T13:10:14;5.87;;;3.60;;
4011;SDS011;2020;48.682;9.024;2023-02-23T13:24:05;4.47;;;4.07;;
4011;SDS011;2020;48.682;9.024;2023-02-23T13:31:50;4.30;;;3.90;;
4011;SDS011;2020;48.682;9.024;2023-02-23T13:35:17;4.40;;;4.00;;
4011;SDS011;2020;48.682;9.024;2023-02-23T13:37:26;5.20;;;4.67;;
4011;SDS011;2020;48.682;9.024;2023-02-23T13:40:01;3.70;;;3.40;;
4011;SDS011;2020;48.682;9.024;2023-02-23T13:53:36;7.33;;;4.07;;
4011;SDS011;2020;48.682;9.024;2023-02-23T13:56:10;3.97;;;3.40;;
4011;SDS011;2020;48.682;9.024;2023-02-23T13:58:44;4.37;;;3.80;;
4011;SDS011;2020;48.682;9.024;2023-02-23T14:01:14;8.10;;;4.07;;
4011;SDS011;2020;48.682;9.024;2023-02-23T14:03:52;5.97;;;3.63;;
4011;SDS011;2020;48.682;9.024;2023-02-23T14:06:20;4.40;;;4.00;;
4011;SDS011;2020;48.682;9.024;2023-02-23T14:08:50;6.53;;;3.73;;
4011;SDS011;2020;48.682;9.024;2023-02-23T14:19:42;4.40;;;3.97;;
4011;SDS011;2020;48.682;9.024;2023-02-23T14:22:26;5.23;;;4.50;;
4011;SDS011;2020;48.682;9.024;2023-02-23T14:28:02;5.07;;;4.50;;
4011;SDS011;2020;48.682;9.024;2023-02-23T14:30:46;5.60;;;3.97;;
4011;SDS011;2020;48.682;9.024;2023-02-23T14:33:32;5.07;;;4.60;;
4011;SDS011;2020;48.682;9.024;2023-02-23T14:41:33;7.90;;;4.23;;
4011;SDS011;2020;48.682;9.024;2023-02-23T14:44:06;4.50;;;4.10;;
4011;SDS011;2020;48.682;9.024;2023-02-23T14:46:37;7.23;;;5.27;;
4011;SDS011;2020;48.682;9.024;2023-02-23T14:49:16;9.33;;;4.80;;
4011;SDS011;2020;48.682;9.024;2023-02-23T14:51:44;5.93;;;5.17;;
4011;SDS011;2020;48.682;9.024;2023-02-23T14:54:23;12.23;;;4.70;;
4011;SDS011;2020;48.682;9.024;2023-02-23T14:56:54;5.67;;;4.23;;
4011;SDS011;2020;48.682;9.024;2023-02-23T14:59:24;4.20;;;3.90;;
4011;SDS011;2020;48.682;9.024;2023-02-23T15:01:51;3.83;;;3.03;;
4011;SDS011;2020;48.682;9.024;2023-02-23T15:04:19;5.20;;;4.40;;
4011;SDS011;2020;48.682;9.024;2023-02-23T15:06:47;4.07;;;3.87;;
4011;SDS011;2020;48.682;9.024;2023-02-23T15:09:26;3.20;;;3.00;;
4011;SDS011;2020;48.682;9.024;2023-02-23T15:11:56;4.27;;;3.23;;
4011;SDS011;2020;48.682;9.024;2023-02-23T15:14:24;4.00;;;3.70;;
4011;SDS011;2020;48.682;9.024;2023-02-23T15:16:49;4.40;;;4.00;;
4011;SDS011;2020;48.682;9.024;2023-02-23T15:19:32;3.60;;;3.30;;
4011;SDS011;2020;48.682;9.024;2023-02-23T15:22:00;4.83;;;4.33;;
4011;SDS011;2020;48.682;9.024;2023-02-23T15:24:39;5.77;;;4.90;;
4011;SDS011;2020;48.682;9.024;2023-02-23T15:27:15;4.03;;;3.80;;
4011;SDS011;2020;48.682;9.024;2023-02-23T15:29:46;8.93;;;4.40;;
4011;SDS011;2020;48.682;9.024;2023-02-23T15:34:44;4.60;;;3.10;;
4011;SDS011;2020;48.682;9.024;2023-02-23T15:37:12;4.77;;;3.23;;
4011;SDS011;2020;48.682;9.024;2023-02-23T15:39:46;5.00;;;4.40;;
4011;SDS011;2020;48.682;9.024;2023-02-23T15:42:21;7.57;;;3.03;;
4011;SDS011;2020;48.682;9.024;2023-02-23T15:44:53;4.53;;;2.77;;
4011;SDS011;2020;48.682;9.024;2023-02-23T15:47:21;4.17;;;3.77;;
4011;SDS011;2020;48.682;9.024;2023-02-23T15:50:01;3.37;;;3.00;;
4011;SDS011;2020;48.682;9.024;2023-02-23T15:52:51;3.90;;;3.53;;
4011;SDS011;2020;48.682;9.024;2023-02-23T15:55:25;7.43;;;5.00;;
4011;SDS011;2020;48.682;9.024;2023-02-23T15:57:54;4.57;;;4.30;;
4011;SDS011;2020;48.682;9.024;2023-02-23T16:00:32;4.50;;;3.60;;
4011;SDS011;2020;48.682;9.024;2023-02-23T16:03:03;5.40;;;3.30;;
4011;SDS011;2020;48.682;9.024;2023-02-23T16:05:31;4.13;;;3.50;;
4011;SDS011;2020;48.682;9.024;2023-02-23T16:08:06;6.23;;;3.60;;
4011;SDS011;2020;48.682;9.024;2023-02-23T16:10:46;6.20;;;4.20;;
4011;SDS011;2020;48.682;9.024;2023-02-23T16:13:14;4.67;;;4.30;;
4011;SDS011;2020;48.682;9.024;2023-02-23T16:15:43;4.43;;;4.07;;
4011;SDS011;2020;48.682;9.024;2023-02-23T16:18:19;8.90;;;5.63;;
4011;SDS011;2020;48.682;9.024;2023-02-23T16:20:53;6.20;;;4.93;;
4011;SDS011;2020;48.682;9.024;2023-02-23T16:23:25;5.90;;;4.43;;
4011;SDS011;2020;48.682;9.024;2023-02-23T16:25:51;7.27;;;5.03;;
4011;SDS011;2020;48.682;9.024;2023-02-23T16:28:20;4.87;;;4.33;;
4011;SDS011;2020;48.682;9.024;2023-02-23T16:31:04;12.43;;;4.97;;
4011;SDS011;2020;48.682;9.024;2023-02-23T16:33:44;6.30;;;5.70;;
4011;SDS011;2020;48.682;9.024;2023-02-23T16:36:20;6.10;;;5.63;;
4011;SDS011;2020;48.682;9.024;2023-02-23T16:38:57;7.10;;;5.20;;
4011;SDS011;2020;48.682;9.024;2023-02-23T16:41:24;6.70;;;5.03;;
4011;SDS011;2020;48.682;9.024;2023-02-23T16:43:52;5.57;;;5.00;;
4011;SDS011;2020;48.682;9.024;2023-02-23T16:46:19;9.40;;;6.00;;
4011;SDS011;2020;48.682;9.024;2023-02-23T16:48:48;5.77;;;4.97;;
4011;SDS011;2020;48.682;9.024;2023-02-23T16:51:14;7.00;;;5.93;;
4011;SDS011;2020;48.682;9.024;2023-02-23T16:53:44;7.20;;;5.20;;
4011;SDS011;2020;48.682;9.024;2023-02-23T16:56:10;10.33;;;5.60;;
4011;SDS011;2020;48.682;9.024;2023-02-23T16:58:39;5.63;;;4.77;;
4011;SDS011;2020;48.682;9.024;2023-02-23T17:01:09;5.73;;;5.20;;
4011;SDS011;2020;48.682;9.024;2023-02-23T17:03:38;10.20;;;5.77;;
4011;SDS011;2020;48.682;9.024;2023-02-23T17:06:04;6.37;;;5.30;;
4011;SDS011;2020;48.682;9.024;2023-02-23T17:08:29;9.23;;;5.77;;
4011;SDS011;2020;48.682;9.024;2023-02-23T17:10:55;6.47;;;5.87;;
4011;SDS011;2020;48.682;9.024;2023-02-23T17:13:22;4.67;;;4.33;;
4011;SDS011;2020;48.682;9.024;2023-02-23T17:15:50;5.37;;;5.00;;
4011;SDS011;2020;48.682;9.024;2023-02-23T17:18:18;4.10;;;3.80;;
4011;SDS011;2020;48.682;9.024;2023-02-23T17:20:44;6.70;;;4.97;;
4011;SDS011;2020;48.682;9.024;2023-02-23T17:23:10;4.90;;;4.50;;
4011;SDS011;2020;48.682;9.024;2023-02-23T17:25:35;7.00;;;5.13;;
4011;SDS011;2020;48.682;9.024;2023-02-23T17:28:01;4.47;;;4.07;;
4011;SDS011;2020;48.682;9.024;2023-02-23T17:30:27;7.50;;;5.00;;
4011;SDS011;2020;48.682;9.024;2023-02-23T17:32:54;6.50;;;5.90;;
4011;SDS011;2020;48.682;9.024;2023-02-23T17:35:21;7.00;;;5.57;;
4011;SDS011;2020;48.682;9.024;2023-02-23T17:37:47;6.83;;;5.13;;
4011;SDS011;2020;48.682;9.024;2023-02-23T17:40:14;5.50;;;4.77;;
4011;SDS011;2020;48.682;9.024;2023-02-23T17:42:42;6.63;;;4.80;;
4011;SDS011;2020;48.682;9.024;2023-02-23T17:45:07;12.03;;;4.27;;
4011;SDS011;2020;48.682;9.024;2023-02-23T17:47:34;5.90;;;4.80;;